sensor_id;sensor_type;location;lat;lon;timestamp;P1;durP1;ratioP1;P2;durP2;ratioP2
21731;SDS011;11028;51.156;17.130;2022-11-27T00:07:02;117.05;;;38.15;;
21731;SDS011;11028;51.156;17.130;2022-11-27T00:14:21;134.35;;;40.72;;
21731;SDS011;11028;51.156;17.130;2022-11-27T00:21:37;107.65;;;35.97;;
21731;SDS011;11028;51.156;17.130;2022-11-27T00:28:54;110.78;;;36.50;;
21731;SDS011;11028;51.156;17.130;2022-11-27T00:36:13;140.75;;;37.75;;
21731;SDS011;11028;51.156;17.130;2022-11-27T00:43:31;130.95;;;38.15;;
21731;SDS011;11028;51.156;17.130;2022-11-27T00:50:48;111.57;;;34.55;;
21731;SDS011;11028;51.156;17.130;2022-11-27T00:58:07;117.85;;;34.63;;
21731;SDS011;11028;51.156;17.130;2022-11-27T01:05:24;117.25;;;37.50;;
21731;SDS011;11028;51.156;17.130;2022-11-27T01:12:40;121.88;;;37.45;;
21731;SDS011;11028;51.156;17.130;2022-11-27T01:19:58;104.00;;;36.15;;
21731;SDS011;11028;51.156;17.130;2022-11-27T01:27:15;110.97;;;35.63;;
21731;SDS011;11028;51.156;17.130;2022-11-27T01:34:32;114.63;;;35.95;;
21731;SDS011;11028;51.156;17.130;2022-11-27T01:41:50;119.20;;;37.05;;
21731;SDS011;11028;51.156;17.130;2022-11-27T01:49:17;124.78;;;40.28;;
21731;SDS011;11028;51.156;17.130;2022-11-27T01:56:37;104.60;;;35.90;;
21731;SDS011;11028;51.156;17.130;2022-11-27T02:03:58;119.90;;;36.45;;
21731;SDS011;11028;51.156;17.130;2022-11-27T02:11:18;136.73;;;37.67;;
21731;SDS011;11028;51.156;17.130;2022-11-27T02:18:41;122.60;;;37.97;;
21731;SDS011;11028;51.156;17.130;2022-11-27T02:26:19;110.30;;;36.72;;
21731;SDS011;11028;51.156;17.130;2022-11-27T02:33:48;125.13;;;38.65;;
21731;SDS011;11028;51.156;17.130;2022-11-27T02:41:11;156.02;;;42.42;;
21731;SDS011;11028;51.156;17.130;2022-11-27T02:48:30;153.82;;;43.13;;
21731;SDS011;11028;51.156;17.130;2022-11-27T02:55:51;154.93;;;42.50;;
21731;SDS011;11028;51.156;17.130;2022-11-27T03:03:09;138.45;;;42.58;;
21731;SDS011;11028;51.156;17.130;2022-11-27T03:10:29;120.43;;;38.15;;
21731;SDS011;11028;51.156;17.130;2022-11-27T03:17:50;122.65;;;37.08;;
21731;SDS011;11028;51.156;17.130;2022-11-27T03:25:10;129.30;;;39.40;;
21731;SDS011;11028;51.156;17.130;2022-11-27T03:32:27;134.38;;;40.50;;
21731;SDS011;11028;51.156;17.130;2022-11-27T03:39:45;122.03;;;39.40;;
21731;SDS011;11028;51.156;17.130;2022-11-27T03:47:04;119.15;;;39.33;;
21731;SDS011;11028;51.156;17.130;2022-11-27T03:54:29;106.28;;;37.67;;
21731;SDS011;11028;51.156;17.130;2022-11-27T04:01:58;113.20;;;38.53;;
21731;SDS011;11028;51.156;17.130;2022-11-27T04:09:14;123.55;;;39.30;;
21731;SDS011;11028;51.156;17.130;2022-11-27T04:16:31;106.90;;;35.25;;
21731;SDS011;11028;51.156;17.130;2022-11-27T04:23:49;127.60;;;41.25;;
21731;SDS011;11028;51.156;17.130;2022-11-27T04:31:06;219.95;;;43.08;;
21731;SDS011;11028;51.156;17.130;2022-11-27T04:38:23;223.77;;;44.78;;
21731;SDS011;11028;51.156;17.130;2022-11-27T04:45:43;188.98;;;45.28;;
21731;SDS011;11028;51.156;17.130;2022-11-27T04:53:00;186.88;;;38.92;;
21731;SDS011;11028;51.156;17.130;2022-11-27T05:00:18;186.32;;;40.20;;
21731;SDS011;11028;51.156;17.130;2022-11-27T05:07:37;211.50;;;40.40;;
21731;SDS011;11028;51.156;17.130;2022-11-27T05:14:55;197.77;;;41.50;;
21731;SDS011;11028;51.156;17.130;2022-11-27T05:22:15;230.85;;;42.83;;
21731;SDS011;11028;51.156;17.130;2022-11-27T05:29:33;183.18;;;41.00;;
21731;SDS011;11028;51.156;17.130;2022-11-27T05:36:50;190.65;;;38.30;;
21731;SDS011;11028;51.156;17.130;2022-11-27T05:44:08;107.20;;;34.22;;
21731;SDS011;11028;51.156;17.130;2022-11-27T05:51:28;161.85;;;40.05;;
21731;SDS011;11028;51.156;17.130;2022-11-27T05:58:45;256.33;;;42.55;;
21731;SDS011;11028;51.156;17.130;2022-11-27T06:06:04;243.95;;;40.40;;
21731;SDS011;11028;51.156;17.130;2022-11-27T06:13:23;280.10;;;42.55;;
21731;SDS011;11028;51.156;17.130;2022-11-27T06:20:40;166.90;;;37.38;;
21731;SDS011;11028;51.156;17.130;2022-11-27T06:27:57;134.15;;;37.40;;
21731;SDS011;11028;51.156;17.130;2022-11-27T06:35:17;130.10;;;36.88;;
21731;SDS011;11028;51.156;17.130;2022-11-27T06:42:34;256.92;;;41.15;;
21731;SDS011;11028;51.156;17.130;2022-11-27T06:49:51;392.92;;;42.13;;
21731;SDS011;11028;51.156;17.130;2022-11-27T06:57:11;364.80;;;44.80;;
21731;SDS011;11028;51.156;17.130;2022-11-27T07:04:28;151.00;;;34.90;;
21731;SDS011;11028;51.156;17.130;2022-11-27T07:12:19;124.85;;;32.58;;
21731;SDS011;11028;51.156;17.130;2022-11-27T07:19:36;120.68;;;30.92;;
21731;SDS011;11028;51.156;17.130;2022-11-27T07:26:53;144.68;;;33.88;;
21731;SDS011;11028;51.156;17.130;2022-11-27T07:34:11;132.10;;;32.90;;
21731;SDS011;11028;51.156;17.130;2022-11-27T07:41:28;156.40;;;33.45;;
21731;SDS011;11028;51.156;17.130;2022-11-27T07:48:45;177.10;;;35.38;;
21731;SDS011;11028;51.156;17.130;2022-11-27T07:56:04;167.70;;;33.97;;
21731;SDS011;11028;51.156;17.130;2022-11-27T08:03:21;134.93;;;31.23;;
21731;SDS011;11028;51.156;17.130;2022-11-27T08:10:38;274.15;;;37.30;;
21731;SDS011;11028;51.156;17.130;2022-11-27T08:17:56;161.43;;;32.80;;
21731;SDS011;11028;51.156;17.130;2022-11-27T08:25:14;162.02;;;35.30;;
21731;SDS011;11028;51.156;17.130;2022-11-27T08:32:31;97.30;;;28.42;;
21731;SDS011;11028;51.156;17.130;2022-11-27T08:39:50;102.40;;;29.92;;
21731;SDS011;11028;51.156;17.130;2022-11-27T08:47:07;113.63;;;30.98;;
21731;SDS011;11028;51.156;17.130;2022-11-27T08:54:23;112.28;;;29.27;;
21731;SDS011;11028;51.156;17.130;2022-11-27T09:01:42;125.68;;;31.98;;
21731;SDS011;11028;51.156;17.130;2022-11-27T09:08:59;100.65;;;28.40;;
21731;SDS011;11028;51.156;17.130;2022-11-27T09:16:18;112.43;;;31.10;;
21731;SDS011;11028;51.156;17.130;2022-11-27T09:23:38;120.45;;;33.22;;
21731;SDS011;11028;51.156;17.130;2022-11-27T09:30:55;112.30;;;33.55;;
21731;SDS011;11028;51.156;17.130;2022-11-27T09:38:12;93.25;;;29.80;;
21731;SDS011;11028;51.156;17.130;2022-11-27T09:45:31;72.90;;;26.33;;
21731;SDS011;11028;51.156;17.130;2022-11-27T09:52:49;89.47;;;31.45;;
21731;SDS011;11028;51.156;17.130;2022-11-27T10:00:10;71.63;;;26.10;;
21731;SDS011;11028;51.156;17.130;2022-11-27T10:07:35;71.95;;;29.50;;
21731;SDS011;11028;51.156;17.130;2022-11-27T10:15:00;70.35;;;28.40;;
21731;SDS011;11028;51.156;17.130;2022-11-27T10:29:40;46.28;;;22.58;;
21731;SDS011;11028;51.156;17.130;2022-11-27T10:36:59;53.92;;;26.35;;
21731;SDS011;11028;51.156;17.130;2022-11-27T10:44:21;60.97;;;28.00;;
21731;SDS011;11028;51.156;17.130;2022-11-27T10:51:42;47.42;;;24.23;;
21731;SDS011;11028;51.156;17.130;2022-11-27T10:58:59;44.17;;;22.10;;
21731;SDS011;11028;51.156;17.130;2022-11-27T11:06:19;43.38;;;23.35;;
21731;SDS011;11028;51.156;17.130;2022-11-27T11:13:47;43.80;;;22.83;;
21731;SDS011;11028;51.156;17.130;2022-11-27T11:21:05;32.15;;;18.20;;
21731;SDS011;11028;51.156;17.130;2022-11-27T11:28:22;33.67;;;18.40;;
21731;SDS011;11028;51.156;17.130;2022-11-27T11:35:49;31.98;;;16.38;;
21731;SDS011;11028;51.156;17.130;2022-11-27T11:43:20;37.28;;;19.60;;
21731;SDS011;11028;51.156;17.130;2022-11-27T11:50:40;37.65;;;19.58;;
21731;SDS011;11028;51.156;17.130;2022-11-27T11:58:02;40.28;;;21.67;;
21731;SDS011;11028;51.156;17.130;2022-11-27T12:05:37;41.15;;;20.83;;
21731;SDS011;11028;51.156;17.130;2022-11-27T12:13:12;39.40;;;20.67;;
21731;SDS011;11028;51.156;17.130;2022-11-27T12:20:40;46.47;;;24.00;;
21731;SDS011;11028;51.156;17.130;2022-11-27T12:28:10;40.83;;;19.80;;
21731;SDS011;11028;51.156;17.130;2022-11-27T12:35:40;38.22;;;19.10;;
21731;SDS011;11028;51.156;17.130;2022-11-27T12:43:01;37.13;;;19.30;;
21731;SDS011;11028;51.156;17.130;2022-11-27T12:50:31;44.83;;;22.23;;
21731;SDS011;11028;51.156;17.130;2022-11-27T12:57:53;36.15;;;18.98;;
21731;SDS011;11028;51.156;17.130;2022-11-27T13:05:14;40.45;;;20.42;;
21731;SDS011;11028;51.156;17.130;2022-11-27T13:12:37;40.25;;;21.92;;
21731;SDS011;11028;51.156;17.130;2022-11-27T13:19:59;46.08;;;22.67;;
21731;SDS011;11028;51.156;17.130;2022-11-27T13:27:17;50.65;;;23.45;;
21731;SDS011;11028;51.156;17.130;2022-11-27T13:34:41;46.50;;;23.25;;
21731;SDS011;11028;51.156;17.130;2022-11-27T13:42:01;49.67;;;25.17;;
21731;SDS011;11028;51.156;17.130;2022-11-27T13:49:22;46.60;;;24.55;;
21731;SDS011;11028;51.156;17.130;2022-11-27T14:04:05;58.92;;;27.83;;
21731;SDS011;11028;51.156;17.130;2022-11-27T14:11:31;48.75;;;23.58;;
21731;SDS011;11028;51.156;17.130;2022-11-27T14:26:49;44.67;;;23.70;;
21731;SDS011;11028;51.156;17.130;2022-11-27T14:41:43;40.10;;;21.75;;
21731;SDS011;11028;51.156;17.130;2022-11-27T14:49:14;40.35;;;20.88;;
21731;SDS011;11028;51.156;17.130;2022-11-27T14:56:34;48.20;;;23.45;;
21731;SDS011;11028;51.156;17.130;2022-11-27T15:03:57;51.08;;;26.90;;
21731;SDS011;11028;51.156;17.130;2022-11-27T15:11:15;62.83;;;29.77;;
21731;SDS011;11028;51.156;17.130;2022-11-27T15:18:32;70.95;;;32.22;;
21731;SDS011;11028;51.156;17.130;2022-11-27T15:26:02;59.25;;;29.75;;
21731;SDS011;11028;51.156;17.130;2022-11-27T15:33:24;66.35;;;30.33;;
21731;SDS011;11028;51.156;17.130;2022-11-27T15:40:42;65.85;;;30.55;;
21731;SDS011;11028;51.156;17.130;2022-11-27T15:48:01;67.60;;;31.48;;
21731;SDS011;11028;51.156;17.130;2022-11-27T15:55:17;64.63;;;31.80;;
21731;SDS011;11028;51.156;17.130;2022-11-27T16:02:34;62.00;;;30.70;;
21731;SDS011;11028;51.156;17.130;2022-11-27T16:09:53;58.83;;;26.27;;
21731;SDS011;11028;51.156;17.130;2022-11-27T16:17:10;59.35;;;27.30;;
21731;SDS011;11028;51.156;17.130;2022-11-27T16:24:28;52.78;;;26.13;;
21731;SDS011;11028;51.156;17.130;2022-11-27T16:31:46;54.25;;;24.77;;
21731;SDS011;11028;51.156;17.130;2022-11-27T16:39:04;58.40;;;25.63;;
21731;SDS011;11028;51.156;17.130;2022-11-27T16:46:22;59.60;;;27.50;;
21731;SDS011;11028;51.156;17.130;2022-11-27T16:53:44;71.72;;;30.98;;
21731;SDS011;11028;51.156;17.130;2022-11-27T17:01:03;72.55;;;33.47;;
21731;SDS011;11028;51.156;17.130;2022-11-27T17:08:20;67.05;;;30.23;;
21731;SDS011;11028;51.156;17.130;2022-11-27T17:15:38;68.60;;;29.92;;
21731;SDS011;11028;51.156;17.130;2022-11-27T17:22:55;66.15;;;28.60;;
21731;SDS011;11028;51.156;17.130;2022-11-27T17:30:12;70.57;;;31.20;;
21731;SDS011;11028;51.156;17.130;2022-11-27T17:37:31;68.57;;;30.25;;
21731;SDS011;11028;51.156;17.130;2022-11-27T17:44:48;72.55;;;31.25;;
21731;SDS011;11028;51.156;17.130;2022-11-27T17:52:05;76.07;;;31.50;;
21731;SDS011;11028;51.156;17.130;2022-11-27T17:59:27;71.82;;;34.10;;
21731;SDS011;11028;51.156;17.130;2022-11-27T18:06:44;77.55;;;34.75;;
21731;SDS011;11028;51.156;17.130;2022-11-27T18:14:01;95.03;;;38.22;;
21731;SDS011;11028;51.156;17.130;2022-11-27T18:21:20;91.65;;;38.97;;
21731;SDS011;11028;51.156;17.130;2022-11-27T18:28:41;84.13;;;39.40;;
21731;SDS011;11028;51.156;17.130;2022-11-27T18:35:58;85.75;;;37.75;;
21731;SDS011;11028;51.156;17.130;2022-11-27T18:43:16;91.18;;;37.42;;
21731;SDS011;11028;51.156;17.130;2022-11-27T18:50:34;89.80;;;36.25;;
21731;SDS011;11028;51.156;17.130;2022-11-27T18:57:51;88.47;;;37.75;;
21731;SDS011;11028;51.156;17.130;2022-11-27T19:05:10;87.18;;;36.72;;
21731;SDS011;11028;51.156;17.130;2022-11-27T19:12:28;97.78;;;39.33;;
21731;SDS011;11028;51.156;17.130;2022-11-27T19:19:45;110.50;;;41.22;;
21731;SDS011;11028;51.156;17.130;2022-11-27T19:27:03;109.60;;;44.35;;
21731;SDS011;11028;51.156;17.130;2022-11-27T19:34:21;105.72;;;42.90;;
21731;SDS011;11028;51.156;17.130;2022-11-27T19:41:38;100.05;;;41.15;;
21731;SDS011;11028;51.156;17.130;2022-11-27T19:48:57;103.63;;;39.10;;
21731;SDS011;11028;51.156;17.130;2022-11-27T19:56:15;102.38;;;39.10;;
21731;SDS011;11028;51.156;17.130;2022-11-27T20:03:32;107.90;;;40.28;;
21731;SDS011;11028;51.156;17.130;2022-11-27T20:10:51;113.60;;;40.90;;
21731;SDS011;11028;51.156;17.130;2022-11-27T20:18:08;97.22;;;38.35;;
21731;SDS011;11028;51.156;17.130;2022-11-27T20:25:25;96.55;;;39.28;;
21731;SDS011;11028;51.156;17.130;2022-11-27T20:32:44;104.03;;;41.05;;
21731;SDS011;11028;51.156;17.130;2022-11-27T20:40:01;105.55;;;42.30;;
21731;SDS011;11028;51.156;17.130;2022-11-27T20:47:19;106.95;;;41.90;;
21731;SDS011;11028;51.156;17.130;2022-11-27T20:54:41;102.75;;;40.40;;
21731;SDS011;11028;51.156;17.130;2022-11-27T21:01:58;101.55;;;39.38;;
21731;SDS011;11028;51.156;17.130;2022-11-27T21:09:16;97.35;;;37.75;;
21731;SDS011;11028;51.156;17.130;2022-11-27T21:16:36;105.57;;;41.28;;
21731;SDS011;11028;51.156;17.130;2022-11-27T21:23:56;110.82;;;42.28;;
21731;SDS011;11028;51.156;17.130;2022-11-27T21:31:14;106.68;;;43.50;;
21731;SDS011;11028;51.156;17.130;2022-11-27T21:38:33;110.30;;;43.25;;
21731;SDS011;11028;51.156;17.130;2022-11-27T21:45:50;125.22;;;44.97;;
21731;SDS011;11028;51.156;17.130;2022-11-27T21:53:08;125.43;;;46.60;;
21731;SDS011;11028;51.156;17.130;2022-11-27T22:00:27;109.28;;;40.33;;
21731;SDS011;11028;51.156;17.130;2022-11-27T22:07:44;113.28;;;42.88;;
21731;SDS011;11028;51.156;17.130;2022-11-27T22:15:01;101.95;;;41.58;;
21731;SDS011;11028;51.156;17.130;2022-11-27T22:22:20;104.22;;;41.10;;
21731;SDS011;11028;51.156;17.130;2022-11-27T22:29:38;102.60;;;39.65;;
21731;SDS011;11028;51.156;17.130;2022-11-27T22:36:55;99.25;;;39.15;;
21731;SDS011;11028;51.156;17.130;2022-11-27T22:44:14;93.05;;;37.50;;
21731;SDS011;11028;51.156;17.130;2022-11-27T22:51:33;98.88;;;38.72;;
21731;SDS011;11028;51.156;17.130;2022-11-27T22:58:51;101.18;;;39.50;;
21731;SDS011;11028;51.156;17.130;2022-11-27T23:06:10;92.40;;;39.90;;
21731;SDS011;11028;51.156;17.130;2022-11-27T23:13:27;84.15;;;38.85;;
21731;SDS011;11028;51.156;17.130;2022-11-27T23:20:44;96.65;;;38.58;;
21731;SDS011;11028;51.156;17.130;2022-11-27T23:28:02;95.72;;;37.38;;
21731;SDS011;11028;51.156;17.130;2022-11-27T23:35:19;92.18;;;40.75;;
21731;SDS011;11028;51.156;17.130;2022-11-27T23:42:36;101.35;;;40.95;;
21731;SDS011;11028;51.156;17.130;2022-11-27T23:49:54;102.85;;;42.45;;
21731;SDS011;11028;51.156;17.130;2022-11-27T23:57:14;98.60;;;42.08;;
